Bookmark and Share
Track history (hours):
 

John G

More information available from US FCC via Universal Licensing System and Coast Guard Vessel Documentation Center.

Last reported at 2014-Apr-22 18:26 UTC. Time now 2014-Apr-23 12:56 UTC.
Position N 29°32' W 090°48'.

Length 30 m; draft 3.3 m.

Type: Towing. MMSI: 367009680.

NotesDate/timePositionNaut miles runAvg speedWind from/ knotsBaromVisibWave heightAir tempDewpointWater temp
2014-Apr-22 18:26N 29°32' W 090°48'6 7.1
2014-Apr-22 17:32N 29°33' W 090°55'6 6.1
2014-Apr-22 16:32N 29°37' W 091°00'6 6.3
2014-Apr-22 15:33N 29°38' W 091°07'4 3.8
2014-Apr-22 14:33N 29°41' W 091°10'3 3.0
2014-Apr-22 13:33N 29°40' W 091°14'5 5.3
2014-Apr-22 12:33N 29°38' W 091°20'5 4.9
2014-Apr-22 11:33N 29°39' W 091°25'3 2.9
2014-Apr-22 10:33N 29°41' W 091°28'0 0.0
2014-Apr-22 04:29N 29°41' W 091°28'0 0.0
2014-Apr-22 03:31N 29°41' W 091°28'0 0.0
2014-Apr-22 02:27N 29°41' W 091°28'0 0.0
2014-Apr-22 01:30N 29°41' W 091°28'0 0.0
2014-Apr-22 00:32N 29°41' W 091°28'0 0.0
2014-Apr-21 23:31N 29°41' W 091°28'0 0.0
2014-Apr-21 22:33N 29°41' W 091°28'0 0.1
2014-Apr-21 21:33N 29°41' W 091°28'0 0.1
2014-Apr-21 20:32N 29°41' W 091°28'0 0.0
2014-Apr-21 19:31N 29°41' W 091°28'0 0.1
2014-Apr-21 18:33N 29°41' W 091°28'0 0.0
2014-Apr-21 04:28N 29°41' W 091°28'7 2.9
2014-Apr-21 02:13N 29°38' W 091°21'6 8.5
2014-Apr-21 01:33N 29°40' W 091°15'5 4.5
2014-Apr-21 00:33N 29°41' W 091°10'1 1.4
2014-Apr-20 23:33N 29°40' W 091°08'23 2.5
2014-Apr-20 14:21N 29°37' W 090°42'0 0.0
2014-Apr-20 13:31N 29°37' W 090°42'0 0.0
2014-Apr-20 12:29N 29°37' W 090°42'0 0.0
2014-Apr-20 11:33N 29°37' W 090°42'0 0.0
2014-Apr-20 08:33N 29°37' W 090°42'8 0.4
2014-Apr-19 13:12N 29°32' W 090°50'5 7.3
2014-Apr-19 12:32N 29°33' W 090°55'6 6.6
2014-Apr-19 11:33N 29°37' W 091°01'6 5.8
2014-Apr-19 10:33N 29°39' W 091°07'3 3.3
2014-Apr-19 09:33N 29°41' W 091°11'1 1.5
2014-Apr-19 08:33N 29°41' W 091°12'5 5.4
2014-Apr-19 07:33N 29°39' W 091°18'6 5.6
2014-Apr-19 06:33N 29°39' W 091°24'4 3.6
2014-Apr-19 05:29N 29°41' W 091°28'0 0.0
2014-Apr-19 04:29N 29°41' W 091°28'0 0.0
2014-Apr-19 03:32N 29°41' W 091°28'0 0.0
2014-Apr-19 02:32N 29°41' W 091°28'0 0.0
2014-Apr-19 01:10N 29°41' W 091°28'0 0.0
2014-Apr-19 00:33N 29°41' W 091°28'0 0.0
2014-Apr-18 23:33N 29°41' W 091°28'0 0.1
2014-Apr-18 22:32N 29°41' W 091°28'0 0.0
2014-Apr-18 21:28N 29°41' W 091°28'0 0.0
2014-Apr-18 20:34N 29°41' W 091°28'0 0.0
2014-Apr-18 19:33N 29°41' W 091°28'0 0.0
2014-Apr-18 18:29N 29°41' W 091°28'0 0.0
2014-Apr-18 17:34N 29°41' W 091°28'7 5.4
2014-Apr-18 16:22N 29°39' W 091°21'7 8.8
2014-Apr-18 15:33N 29°41' W 091°13'5 5.1
2014-Apr-18 14:34N 29°39' W 091°08'7 6.3
2014-Apr-18 13:28N 29°37' W 090°60'15 0.6
2014-Apr-17 10:29N 29°35' W 090°43'0 0.0
2014-Apr-17 07:15N 29°35' W 090°43'0 0.0
2014-Apr-17 06:31N 29°35' W 090°43'16 0.5
2014-Apr-15 20:18N 29°37' W 091°01'5 6.2
2014-Apr-15 19:33N 29°38' W 091°06'4 3.7
2014-Apr-15 18:33N 29°41' W 091°09'2 1.5
2014-Apr-15 17:34N 29°41' W 091°11'0 0.2
2014-Apr-15 16:33N 29°41' W 091°11'5 4.6
2014-Apr-15 15:33N 29°39' W 091°16'5 4.8
2014-Apr-15 14:33N 29°39' W 091°22'5 2.7
2014-Apr-15 12:34N 29°40' W 091°27'0 0.5
2014-Apr-15 11:33N 29°41' W 091°28'0 0.0
2014-Apr-15 10:34N 29°41' W 091°28'0 0.0
2014-Apr-15 09:34N 29°41' W 091°28'0 0.0
2014-Apr-15 08:34N 29°41' W 091°28'0 0.0
2014-Apr-15 07:34N 29°41' W 091°28'0 0.0
2014-Apr-15 06:34N 29°41' W 091°28'0 0.0
2014-Apr-15 05:34N 29°41' W 091°28'0 0.0
2014-Apr-15 03:34N 29°41' W 091°28'0 0.0
2014-Apr-15 02:34N 29°41' W 091°28'0 0.0
2014-Apr-15 01:32N 29°41' W 091°28'0 0.0
2014-Apr-15 00:34N 29°41' W 091°28'0 0.0
2014-Apr-14 23:31N 29°41' W 091°28'0 0.0
2014-Apr-14 22:31N 29°41' W 091°28'12 3.0
2014-Apr-14 18:34N 29°40' W 091°14'4 4.2
2014-Apr-14 17:34N 29°41' W 091°10'0 0.0
2014-Apr-14 16:34N 29°41' W 091°10'5 5.1
2014-Apr-14 15:34N 29°38' W 091°05'7 6.5
2014-Apr-14 14:33N 29°35' W 090°58'  

Dump ship's entire track history

sailing weather and tide predictions

John G — WDF2677 — position and weather